sensor_id;sensor_type;location;lat;lon;timestamp;P1;durP1;ratioP1;P2;durP2;ratioP2
63690;SDS011;49837;57.280;27.070;2022-07-22T00:00:57;3.6;;;1.9;;
63690;SDS011;49837;57.280;27.070;2022-07-22T00:01:57;2.7;;;1.7;;
63690;SDS011;49837;57.280;27.070;2022-07-22T00:02:57;2.8;;;1.8;;
63690;SDS011;49837;57.280;27.070;2022-07-22T00:03:58;2.6;;;1.9;;
63690;SDS011;49837;57.280;27.070;2022-07-22T00:04:58;4.4;;;1.9;;
63690;SDS011;49837;57.280;27.070;2022-07-22T00:05:59;2.2;;;1.6;;
63690;SDS011;49837;57.280;27.070;2022-07-22T00:06:59;4.3;;;1.9;;
63690;SDS011;49837;57.280;27.070;2022-07-22T00:07:59;5.3;;;1.8;;
63690;SDS011;49837;57.280;27.070;2022-07-22T00:09:00;4.7;;;1.9;;
63690;SDS011;49837;57.280;27.070;2022-07-22T00:10:00;5.6;;;1.9;;
63690;SDS011;49837;57.280;27.070;2022-07-22T00:11:02;5.7;;;1.9;;
63690;SDS011;49837;57.280;27.070;2022-07-22T00:12:02;6.0;;;1.9;;
63690;SDS011;49837;57.280;27.070;2022-07-22T00:13:02;3.9;;;2.0;;
63690;SDS011;49837;57.280;27.070;2022-07-22T00:14:03;3.9;;;2.0;;
63690;SDS011;49837;57.280;27.070;2022-07-22T00:15:04;5.3;;;1.8;;
63690;SDS011;49837;57.280;27.070;2022-07-22T00:16:04;6.6;;;2.1;;
63690;SDS011;49837;57.280;27.070;2022-07-22T00:17:04;4.5;;;2.2;;
63690;SDS011;49837;57.280;27.070;2022-07-22T00:18:04;4.7;;;2.0;;
63690;SDS011;49837;57.280;27.070;2022-07-22T00:19:05;4.6;;;2.0;;
63690;SDS011;49837;57.280;27.070;2022-07-22T00:20:06;4.3;;;2.0;;
63690;SDS011;49837;57.280;27.070;2022-07-22T00:21:06;3.8;;;2.0;;
63690;SDS011;49837;57.280;27.070;2022-07-22T00:22:07;4.0;;;1.9;;
63690;SDS011;49837;57.280;27.070;2022-07-22T00:23:07;6.2;;;2.0;;
63690;SDS011;49837;57.280;27.070;2022-07-22T00:24:08;5.8;;;2.3;;
63690;SDS011;49837;57.280;27.070;2022-07-22T00:25:08;2.1;;;1.9;;
63690;SDS011;49837;57.280;27.070;2022-07-22T00:26:09;4.2;;;2.3;;
63690;SDS011;49837;57.280;27.070;2022-07-22T00:27:10;5.2;;;1.9;;
63690;SDS011;49837;57.280;27.070;2022-07-22T00:28:10;2.4;;;1.8;;
63690;SDS011;49837;57.280;27.070;2022-07-22T00:29:10;4.2;;;2.0;;
63690;SDS011;49837;57.280;27.070;2022-07-22T00:30:11;4.9;;;2.3;;
63690;SDS011;49837;57.280;27.070;2022-07-22T00:31:11;3.2;;;1.9;;
63690;SDS011;49837;57.280;27.070;2022-07-22T00:32:12;5.0;;;2.5;;
63690;SDS011;49837;57.280;27.070;2022-07-22T00:33:12;6.2;;;2.1;;
63690;SDS011;49837;57.280;27.070;2022-07-22T00:34:13;4.7;;;2.1;;
63690;SDS011;49837;57.280;27.070;2022-07-22T00:35:13;4.7;;;2.3;;
63690;SDS011;49837;57.280;27.070;2022-07-22T00:36:14;4.2;;;2.3;;
63690;SDS011;49837;57.280;27.070;2022-07-22T00:37:14;5.7;;;2.1;;
63690;SDS011;49837;57.280;27.070;2022-07-22T00:38:14;3.6;;;1.9;;
63690;SDS011;49837;57.280;27.070;2022-07-22T00:39:15;6.1;;;2.1;;
63690;SDS011;49837;57.280;27.070;2022-07-22T00:40:15;3.5;;;2.1;;
63690;SDS011;49837;57.280;27.070;2022-07-22T00:41:16;4.9;;;2.0;;
63690;SDS011;49837;57.280;27.070;2022-07-22T00:42:16;9.7;;;2.0;;
63690;SDS011;49837;57.280;27.070;2022-07-22T00:43:17;3.6;;;2.0;;
63690;SDS011;49837;57.280;27.070;2022-07-22T00:44:18;3.1;;;2.1;;
63690;SDS011;49837;57.280;27.070;2022-07-22T00:45:18;3.8;;;1.9;;
63690;SDS011;49837;57.280;27.070;2022-07-22T00:46:19;4.0;;;2.1;;
63690;SDS011;49837;57.280;27.070;2022-07-22T00:47:19;4.4;;;2.1;;
63690;SDS011;49837;57.280;27.070;2022-07-22T00:48:20;6.3;;;2.1;;
63690;SDS011;49837;57.280;27.070;2022-07-22T00:49:20;5.3;;;2.0;;
63690;SDS011;49837;57.280;27.070;2022-07-22T00:50:21;4.2;;;1.7;;
63690;SDS011;49837;57.280;27.070;2022-07-22T00:51:22;6.8;;;2.1;;
63690;SDS011;49837;57.280;27.070;2022-07-22T00:52:21;5.3;;;1.8;;
63690;SDS011;49837;57.280;27.070;2022-07-22T00:53:22;4.5;;;2.0;;
63690;SDS011;49837;57.280;27.070;2022-07-22T00:54:22;3.4;;;2.0;;
63690;SDS011;49837;57.280;27.070;2022-07-22T00:55:23;4.4;;;2.0;;
63690;SDS011;49837;57.280;27.070;2022-07-22T00:56:24;4.9;;;2.0;;
63690;SDS011;49837;57.280;27.070;2022-07-22T00:57:24;3.5;;;1.7;;
63690;SDS011;49837;57.280;27.070;2022-07-22T00:58:24;6.9;;;2.1;;
63690;SDS011;49837;57.280;27.070;2022-07-22T00:59:24;7.2;;;2.0;;
63690;SDS011;49837;57.280;27.070;2022-07-22T01:00:25;4.2;;;1.8;;
63690;SDS011;49837;57.280;27.070;2022-07-22T01:01:25;4.7;;;1.9;;
63690;SDS011;49837;57.280;27.070;2022-07-22T01:02:26;6.3;;;2.2;;
63690;SDS011;49837;57.280;27.070;2022-07-22T01:03:26;5.7;;;2.3;;
63690;SDS011;49837;57.280;27.070;2022-07-22T01:04:27;5.7;;;2.3;;
63690;SDS011;49837;57.280;27.070;2022-07-22T01:05:27;4.5;;;1.9;;
63690;SDS011;49837;57.280;27.070;2022-07-22T01:06:28;5.4;;;1.8;;
63690;SDS011;49837;57.280;27.070;2022-07-22T01:07:28;7.7;;;1.9;;
63690;SDS011;49837;57.280;27.070;2022-07-22T01:08:28;2.1;;;1.6;;
63690;SDS011;49837;57.280;27.070;2022-07-22T01:09:29;2.7;;;1.5;;
63690;SDS011;49837;57.280;27.070;2022-07-22T01:10:29;3.1;;;1.5;;
63690;SDS011;49837;57.280;27.070;2022-07-22T01:11:30;7.4;;;2.0;;
63690;SDS011;49837;57.280;27.070;2022-07-22T01:12:30;2.0;;;1.5;;
63690;SDS011;49837;57.280;27.070;2022-07-22T01:13:30;5.8;;;1.8;;
63690;SDS011;49837;57.280;27.070;2022-07-22T01:14:31;1.7;;;1.6;;
63690;SDS011;49837;57.280;27.070;2022-07-22T01:15:31;4.2;;;1.6;;
63690;SDS011;49837;57.280;27.070;2022-07-22T01:16:32;5.5;;;2.1;;
63690;SDS011;49837;57.280;27.070;2022-07-22T01:17:32;6.8;;;1.9;;
63690;SDS011;49837;57.280;27.070;2022-07-22T01:18:33;4.6;;;1.9;;
63690;SDS011;49837;57.280;27.070;2022-07-22T01:19:34;4.1;;;2.0;;
63690;SDS011;49837;57.280;27.070;2022-07-22T01:20:34;5.0;;;1.8;;
63690;SDS011;49837;57.280;27.070;2022-07-22T01:21:34;5.0;;;1.7;;
63690;SDS011;49837;57.280;27.070;2022-07-22T01:22:35;3.8;;;2.0;;
63690;SDS011;49837;57.280;27.070;2022-07-22T01:23:35;3.7;;;1.8;;
63690;SDS011;49837;57.280;27.070;2022-07-22T01:24:35;4.6;;;1.9;;
63690;SDS011;49837;57.280;27.070;2022-07-22T01:25:36;5.4;;;1.9;;
63690;SDS011;49837;57.280;27.070;2022-07-22T01:26:36;6.4;;;1.8;;
63690;SDS011;49837;57.280;27.070;2022-07-22T01:27:37;3.9;;;2.0;;
63690;SDS011;49837;57.280;27.070;2022-07-22T01:28:37;3.9;;;1.7;;
63690;SDS011;49837;57.280;27.070;2022-07-22T01:29:37;3.0;;;1.9;;
63690;SDS011;49837;57.280;27.070;2022-07-22T01:30:38;3.7;;;2.1;;
63690;SDS011;49837;57.280;27.070;2022-07-22T01:31:38;3.3;;;1.7;;
63690;SDS011;49837;57.280;27.070;2022-07-22T01:32:39;4.2;;;2.0;;
63690;SDS011;49837;57.280;27.070;2022-07-22T01:33:39;4.0;;;1.8;;
63690;SDS011;49837;57.280;27.070;2022-07-22T01:34:40;4.9;;;1.9;;
63690;SDS011;49837;57.280;27.070;2022-07-22T01:35:40;4.5;;;2.1;;
63690;SDS011;49837;57.280;27.070;2022-07-22T01:36:41;5.5;;;1.9;;
63690;SDS011;49837;57.280;27.070;2022-07-22T01:37:41;7.0;;;2.4;;
63690;SDS011;49837;57.280;27.070;2022-07-22T01:38:41;7.6;;;2.0;;
63690;SDS011;49837;57.280;27.070;2022-07-22T01:39:42;5.3;;;1.9;;
63690;SDS011;49837;57.280;27.070;2022-07-22T01:40:43;4.0;;;1.9;;
63690;SDS011;49837;57.280;27.070;2022-07-22T01:41:43;3.1;;;1.9;;
63690;SDS011;49837;57.280;27.070;2022-07-22T01:42:43;5.2;;;1.9;;
63690;SDS011;49837;57.280;27.070;2022-07-22T01:43:43;3.7;;;1.7;;
63690;SDS011;49837;57.280;27.070;2022-07-22T01:44:44;4.5;;;2.0;;
63690;SDS011;49837;57.280;27.070;2022-07-22T01:45:45;8.6;;;2.2;;
63690;SDS011;49837;57.280;27.070;2022-07-22T01:46:45;5.3;;;1.9;;
63690;SDS011;49837;57.280;27.070;2022-07-22T01:47:45;4.8;;;1.9;;
63690;SDS011;49837;57.280;27.070;2022-07-22T01:48:46;7.4;;;1.9;;
63690;SDS011;49837;57.280;27.070;2022-07-22T01:49:46;5.6;;;2.1;;
63690;SDS011;49837;57.280;27.070;2022-07-22T01:50:47;5.6;;;2.0;;
63690;SDS011;49837;57.280;27.070;2022-07-22T01:51:47;6.2;;;2.0;;
63690;SDS011;49837;57.280;27.070;2022-07-22T01:52:47;4.6;;;1.9;;
63690;SDS011;49837;57.280;27.070;2022-07-22T01:53:48;8.3;;;2.2;;
63690;SDS011;49837;57.280;27.070;2022-07-22T01:54:48;2.7;;;2.0;;
63690;SDS011;49837;57.280;27.070;2022-07-22T01:55:49;3.8;;;2.0;;
63690;SDS011;49837;57.280;27.070;2022-07-22T01:56:49;3.2;;;1.8;;
63690;SDS011;49837;57.280;27.070;2022-07-22T01:57:49;6.6;;;2.0;;
63690;SDS011;49837;57.280;27.070;2022-07-22T01:58:50;5.0;;;1.9;;
63690;SDS011;49837;57.280;27.070;2022-07-22T01:59:50;6.8;;;2.0;;
63690;SDS011;49837;57.280;27.070;2022-07-22T02:00:51;4.2;;;1.9;;
63690;SDS011;49837;57.280;27.070;2022-07-22T02:01:51;6.4;;;2.4;;
63690;SDS011;49837;57.280;27.070;2022-07-22T02:02:52;3.5;;;2.0;;
63690;SDS011;49837;57.280;27.070;2022-07-22T02:03:52;3.8;;;1.8;;
63690;SDS011;49837;57.280;27.070;2022-07-22T02:04:52;4.7;;;1.8;;
63690;SDS011;49837;57.280;27.070;2022-07-22T02:05:53;4.3;;;1.8;;
63690;SDS011;49837;57.280;27.070;2022-07-22T02:06:53;6.2;;;1.9;;
63690;SDS011;49837;57.280;27.070;2022-07-22T02:07:58;4.7;;;1.8;;
63690;SDS011;49837;57.280;27.070;2022-07-22T02:08:56;4.0;;;1.7;;
63690;SDS011;49837;57.280;27.070;2022-07-22T02:09:56;3.3;;;1.9;;
63690;SDS011;49837;57.280;27.070;2022-07-22T02:10:57;5.3;;;2.2;;
63690;SDS011;49837;57.280;27.070;2022-07-22T02:11:57;3.9;;;1.9;;
63690;SDS011;49837;57.280;27.070;2022-07-22T02:12:57;3.2;;;1.8;;
63690;SDS011;49837;57.280;27.070;2022-07-22T02:13:58;3.7;;;1.8;;
63690;SDS011;49837;57.280;27.070;2022-07-22T02:14:58;4.0;;;1.8;;
63690;SDS011;49837;57.280;27.070;2022-07-22T02:15:59;2.5;;;1.8;;
63690;SDS011;49837;57.280;27.070;2022-07-22T02:17:00;4.5;;;1.9;;
63690;SDS011;49837;57.280;27.070;2022-07-22T02:18:00;4.2;;;1.8;;
63690;SDS011;49837;57.280;27.070;2022-07-22T02:19:01;5.1;;;1.7;;
63690;SDS011;49837;57.280;27.070;2022-07-22T02:20:02;4.4;;;2.0;;
63690;SDS011;49837;57.280;27.070;2022-07-22T02:21:02;6.3;;;1.9;;
63690;SDS011;49837;57.280;27.070;2022-07-22T02:22:03;4.6;;;1.9;;
63690;SDS011;49837;57.280;27.070;2022-07-22T02:23:03;4.7;;;2.2;;
63690;SDS011;49837;57.280;27.070;2022-07-22T02:24:04;3.3;;;1.8;;
63690;SDS011;49837;57.280;27.070;2022-07-22T02:25:04;2.6;;;1.7;;
63690;SDS011;49837;57.280;27.070;2022-07-22T02:26:04;2.9;;;1.8;;
63690;SDS011;49837;57.280;27.070;2022-07-22T02:27:05;3.7;;;1.8;;
63690;SDS011;49837;57.280;27.070;2022-07-22T02:28:05;5.2;;;1.9;;
63690;SDS011;49837;57.280;27.070;2022-07-22T02:29:05;2.5;;;1.9;;
63690;SDS011;49837;57.280;27.070;2022-07-22T02:30:07;3.7;;;1.7;;
63690;SDS011;49837;57.280;27.070;2022-07-22T02:31:06;3.6;;;1.9;;
63690;SDS011;49837;57.280;27.070;2022-07-22T02:32:07;4.7;;;2.0;;
63690;SDS011;49837;57.280;27.070;2022-07-22T02:33:07;3.8;;;1.7;;
63690;SDS011;49837;57.280;27.070;2022-07-22T02:34:08;2.8;;;1.8;;
63690;SDS011;49837;57.280;27.070;2022-07-22T02:35:08;2.5;;;1.8;;
63690;SDS011;49837;57.280;27.070;2022-07-22T02:36:09;5.1;;;1.7;;
63690;SDS011;49837;57.280;27.070;2022-07-22T02:37:09;5.1;;;2.0;;
63690;SDS011;49837;57.280;27.070;2022-07-22T02:38:09;4.8;;;1.8;;
63690;SDS011;49837;57.280;27.070;2022-07-22T02:39:10;4.7;;;1.9;;
63690;SDS011;49837;57.280;27.070;2022-07-22T02:40:10;2.7;;;1.9;;
63690;SDS011;49837;57.280;27.070;2022-07-22T02:41:11;2.9;;;1.7;;
63690;SDS011;49837;57.280;27.070;2022-07-22T02:42:12;5.7;;;1.9;;
63690;SDS011;49837;57.280;27.070;2022-07-22T02:43:11;3.2;;;1.8;;
63690;SDS011;49837;57.280;27.070;2022-07-22T02:44:12;8.7;;;2.2;;
63690;SDS011;49837;57.280;27.070;2022-07-22T02:45:13;2.8;;;1.6;;
63690;SDS011;49837;57.280;27.070;2022-07-22T02:46:13;5.0;;;1.9;;
63690;SDS011;49837;57.280;27.070;2022-07-22T02:47:13;3.2;;;1.7;;
63690;SDS011;49837;57.280;27.070;2022-07-22T02:48:14;2.5;;;1.8;;
63690;SDS011;49837;57.280;27.070;2022-07-22T02:49:14;4.4;;;2.1;;
63690;SDS011;49837;57.280;27.070;2022-07-22T02:50:14;6.9;;;2.0;;
63690;SDS011;49837;57.280;27.070;2022-07-22T02:51:15;3.5;;;1.6;;
63690;SDS011;49837;57.280;27.070;2022-07-22T02:52:15;3.0;;;1.6;;
63690;SDS011;49837;57.280;27.070;2022-07-22T02:53:16;2.8;;;1.7;;
63690;SDS011;49837;57.280;27.070;2022-07-22T02:54:16;4.0;;;1.8;;
63690;SDS011;49837;57.280;27.070;2022-07-22T02:55:17;3.1;;;1.7;;
63690;SDS011;49837;57.280;27.070;2022-07-22T02:56:17;4.1;;;1.7;;
63690;SDS011;49837;57.280;27.070;2022-07-22T02:57:18;7.0;;;1.9;;
63690;SDS011;49837;57.280;27.070;2022-07-22T02:58:18;4.1;;;1.7;;
63690;SDS011;49837;57.280;27.070;2022-07-22T02:59:18;3.2;;;1.7;;
63690;SDS011;49837;57.280;27.070;2022-07-22T03:00:19;3.5;;;1.7;;
63690;SDS011;49837;57.280;27.070;2022-07-22T03:01:20;3.1;;;1.7;;
63690;SDS011;49837;57.280;27.070;2022-07-22T03:02:20;2.5;;;1.8;;
63690;SDS011;49837;57.280;27.070;2022-07-22T03:03:20;5.2;;;2.0;;
63690;SDS011;49837;57.280;27.070;2022-07-22T03:04:21;4.3;;;1.7;;
63690;SDS011;49837;57.280;27.070;2022-07-22T03:05:21;3.5;;;1.6;;
63690;SDS011;49837;57.280;27.070;2022-07-22T03:06:21;2.6;;;1.7;;
63690;SDS011;49837;57.280;27.070;2022-07-22T03:07:22;3.7;;;1.8;;
63690;SDS011;49837;57.280;27.070;2022-07-22T03:08:22;2.1;;;1.7;;
63690;SDS011;49837;57.280;27.070;2022-07-22T03:09:23;4.5;;;2.0;;
63690;SDS011;49837;57.280;27.070;2022-07-22T03:10:23;5.8;;;1.9;;
63690;SDS011;49837;57.280;27.070;2022-07-22T03:11:24;4.6;;;1.9;;
63690;SDS011;49837;57.280;27.070;2022-07-22T03:12:24;5.9;;;2.1;;
63690;SDS011;49837;57.280;27.070;2022-07-22T03:13:24;3.6;;;1.8;;
63690;SDS011;49837;57.280;27.070;2022-07-22T03:14:25;3.3;;;2.2;;
63690;SDS011;49837;57.280;27.070;2022-07-22T03:15:25;6.4;;;2.2;;
63690;SDS011;49837;57.280;27.070;2022-07-22T03:16:26;5.3;;;1.9;;
63690;SDS011;49837;57.280;27.070;2022-07-22T03:17:26;8.9;;;3.1;;
63690;SDS011;49837;57.280;27.070;2022-07-22T03:18:27;4.9;;;2.0;;
63690;SDS011;49837;57.280;27.070;2022-07-22T03:19:27;5.7;;;2.0;;
63690;SDS011;49837;57.280;27.070;2022-07-22T03:20:28;7.2;;;2.1;;
63690;SDS011;49837;57.280;27.070;2022-07-22T03:21:29;6.7;;;2.1;;
63690;SDS011;49837;57.280;27.070;2022-07-22T03:22:29;4.4;;;1.9;;
63690;SDS011;49837;57.280;27.070;2022-07-22T03:23:29;5.1;;;1.8;;
63690;SDS011;49837;57.280;27.070;2022-07-22T03:24:30;6.9;;;2.3;;
63690;SDS011;49837;57.280;27.070;2022-07-22T03:25:30;8.3;;;2.1;;
63690;SDS011;49837;57.280;27.070;2022-07-22T03:26:31;8.4;;;2.0;;
63690;SDS011;49837;57.280;27.070;2022-07-22T03:27:31;11.1;;;2.1;;
63690;SDS011;49837;57.280;27.070;2022-07-22T03:28:32;9.8;;;2.2;;
63690;SDS011;49837;57.280;27.070;2022-07-22T03:29:32;13.5;;;2.7;;
63690;SDS011;49837;57.280;27.070;2022-07-22T03:30:32;10.2;;;2.6;;
63690;SDS011;49837;57.280;27.070;2022-07-22T03:31:33;16.1;;;2.6;;
63690;SDS011;49837;57.280;27.070;2022-07-22T03:32:33;13.6;;;2.5;;
63690;SDS011;49837;57.280;27.070;2022-07-22T03:33:34;12.4;;;3.0;;
63690;SDS011;49837;57.280;27.070;2022-07-22T03:34:34;11.7;;;2.4;;
63690;SDS011;49837;57.280;27.070;2022-07-22T03:35:35;10.4;;;2.7;;
63690;SDS011;49837;57.280;27.070;2022-07-22T03:36:35;12.2;;;2.6;;
63690;SDS011;49837;57.280;27.070;2022-07-22T03:37:36;7.9;;;2.5;;
63690;SDS011;49837;57.280;27.070;2022-07-22T03:38:36;12.4;;;2.7;;
63690;SDS011;49837;57.280;27.070;2022-07-22T03:39:36;8.7;;;2.3;;
63690;SDS011;49837;57.280;27.070;2022-07-22T03:40:37;11.1;;;2.4;;
63690;SDS011;49837;57.280;27.070;2022-07-22T03:41:37;10.1;;;2.0;;
63690;SDS011;49837;57.280;27.070;2022-07-22T03:42:38;10.0;;;2.5;;
63690;SDS011;49837;57.280;27.070;2022-07-22T03:43:42;18.6;;;2.6;;
63690;SDS011;49837;57.280;27.070;2022-07-22T03:44:42;16.2;;;2.9;;
63690;SDS011;49837;57.280;27.070;2022-07-22T03:45:42;10.6;;;2.7;;
63690;SDS011;49837;57.280;27.070;2022-07-22T03:46:43;10.1;;;2.7;;
63690;SDS011;49837;57.280;27.070;2022-07-22T03:47:43;17.7;;;2.8;;
63690;SDS011;49837;57.280;27.070;2022-07-22T03:48:44;15.8;;;2.9;;
63690;SDS011;49837;57.280;27.070;2022-07-22T03:49:44;15.7;;;2.8;;
63690;SDS011;49837;57.280;27.070;2022-07-22T03:50:45;9.4;;;2.2;;
63690;SDS011;49837;57.280;27.070;2022-07-22T03:51:45;18.6;;;3.0;;
63690;SDS011;49837;57.280;27.070;2022-07-22T03:52:46;17.8;;;3.6;;
63690;SDS011;49837;57.280;27.070;2022-07-22T03:53:46;14.3;;;3.4;;
63690;SDS011;49837;57.280;27.070;2022-07-22T03:54:47;14.6;;;3.3;;
63690;SDS011;49837;57.280;27.070;2022-07-22T03:55:47;23.3;;;3.0;;
63690;SDS011;49837;57.280;27.070;2022-07-22T03:56:47;11.5;;;2.6;;
63690;SDS011;49837;57.280;27.070;2022-07-22T03:57:48;10.1;;;2.5;;
63690;SDS011;49837;57.280;27.070;2022-07-22T03:58:48;13.5;;;2.7;;
63690;SDS011;49837;57.280;27.070;2022-07-22T03:59:49;13.8;;;3.1;;
63690;SDS011;49837;57.280;27.070;2022-07-22T04:00:49;25.7;;;13.3;;
63690;SDS011;49837;57.280;27.070;2022-07-22T04:01:50;18.4;;;7.5;;
63690;SDS011;49837;57.280;27.070;2022-07-22T04:02:50;21.4;;;7.3;;
63690;SDS011;49837;57.280;27.070;2022-07-22T04:03:51;42.3;;;6.5;;
63690;SDS011;49837;57.280;27.070;2022-07-22T04:04:51;83.3;;;8.6;;
63690;SDS011;49837;57.280;27.070;2022-07-22T04:05:52;82.0;;;7.0;;
63690;SDS011;49837;57.280;27.070;2022-07-22T04:06:52;67.9;;;7.1;;
63690;SDS011;49837;57.280;27.070;2022-07-22T04:07:52;74.9;;;7.2;;
63690;SDS011;49837;57.280;27.070;2022-07-22T04:08:53;51.1;;;5.8;;
63690;SDS011;49837;57.280;27.070;2022-07-22T04:09:53;44.5;;;4.7;;
63690;SDS011;49837;57.280;27.070;2022-07-22T04:10:54;22.6;;;4.4;;
63690;SDS011;49837;57.280;27.070;2022-07-22T04:11:54;20.7;;;3.9;;
63690;SDS011;49837;57.280;27.070;2022-07-22T04:12:55;15.4;;;3.4;;
63690;SDS011;49837;57.280;27.070;2022-07-22T04:13:55;15.3;;;3.7;;
63690;SDS011;49837;57.280;27.070;2022-07-22T04:14:56;13.7;;;3.4;;
63690;SDS011;49837;57.280;27.070;2022-07-22T04:15:56;15.5;;;3.2;;
63690;SDS011;49837;57.280;27.070;2022-07-22T04:16:57;21.0;;;3.5;;
63690;SDS011;49837;57.280;27.070;2022-07-22T04:17:57;29.7;;;4.3;;
63690;SDS011;49837;57.280;27.070;2022-07-22T04:18:58;25.9;;;3.8;;
63690;SDS011;49837;57.280;27.070;2022-07-22T04:19:58;21.3;;;3.2;;
63690;SDS011;49837;57.280;27.070;2022-07-22T04:20:59;18.2;;;3.1;;
63690;SDS011;49837;57.280;27.070;2022-07-22T04:21:59;22.9;;;3.7;;
63690;SDS011;49837;57.280;27.070;2022-07-22T04:22:59;24.0;;;3.7;;
63690;SDS011;49837;57.280;27.070;2022-07-22T04:24:00;15.4;;;3.3;;
63690;SDS011;49837;57.280;27.070;2022-07-22T04:25:00;12.3;;;3.7;;
63690;SDS011;49837;57.280;27.070;2022-07-22T04:26:01;18.4;;;3.6;;
63690;SDS011;49837;57.280;27.070;2022-07-22T04:27:01;19.2;;;3.6;;
63690;SDS011;49837;57.280;27.070;2022-07-22T04:28:02;19.2;;;3.6;;
63690;SDS011;49837;57.280;27.070;2022-07-22T04:29:03;12.4;;;3.7;;
63690;SDS011;49837;57.280;27.070;2022-07-22T04:30:03;26.0;;;3.9;;
63690;SDS011;49837;57.280;27.070;2022-07-22T04:31:03;19.0;;;4.0;;
63690;SDS011;49837;57.280;27.070;2022-07-22T04:32:04;17.3;;;3.8;;
63690;SDS011;49837;57.280;27.070;2022-07-22T04:33:04;17.6;;;4.2;;
63690;SDS011;49837;57.280;27.070;2022-07-22T04:34:05;19.8;;;4.1;;
63690;SDS011;49837;57.280;27.070;2022-07-22T04:35:05;16.2;;;4.4;;
63690;SDS011;49837;57.280;27.070;2022-07-22T04:36:06;19.7;;;4.2;;
63690;SDS011;49837;57.280;27.070;2022-07-22T04:37:06;22.0;;;4.6;;
63690;SDS011;49837;57.280;27.070;2022-07-22T04:38:07;15.8;;;3.9;;
63690;SDS011;49837;57.280;27.070;2022-07-22T04:39:07;17.5;;;4.2;;
63690;SDS011;49837;57.280;27.070;2022-07-22T04:40:08;25.5;;;4.3;;
63690;SDS011;49837;57.280;27.070;2022-07-22T04:41:08;21.0;;;4.4;;
63690;SDS011;49837;57.280;27.070;2022-07-22T04:42:08;25.2;;;4.8;;
63690;SDS011;49837;57.280;27.070;2022-07-22T04:43:09;17.6;;;4.7;;
63690;SDS011;49837;57.280;27.070;2022-07-22T04:44:09;23.2;;;5.6;;
63690;SDS011;49837;57.280;27.070;2022-07-22T04:45:10;25.1;;;5.8;;
63690;SDS011;49837;57.280;27.070;2022-07-22T04:46:11;23.1;;;4.9;;
63690;SDS011;49837;57.280;27.070;2022-07-22T04:47:11;25.6;;;5.3;;
63690;SDS011;49837;57.280;27.070;2022-07-22T04:48:12;23.7;;;5.7;;
63690;SDS011;49837;57.280;27.070;2022-07-22T04:49:12;23.3;;;5.5;;
63690;SDS011;49837;57.280;27.070;2022-07-22T04:50:12;24.9;;;5.2;;
63690;SDS011;49837;57.280;27.070;2022-07-22T04:51:13;18.4;;;4.9;;
63690;SDS011;49837;57.280;27.070;2022-07-22T04:52:13;17.0;;;4.7;;
63690;SDS011;49837;57.280;27.070;2022-07-22T04:53:13;19.7;;;5.2;;
63690;SDS011;49837;57.280;27.070;2022-07-22T04:54:14;10.4;;;4.9;;
63690;SDS011;49837;57.280;27.070;2022-07-22T04:55:14;14.5;;;4.5;;
63690;SDS011;49837;57.280;27.070;2022-07-22T04:56:15;19.2;;;5.6;;
63690;SDS011;49837;57.280;27.070;2022-07-22T04:57:15;23.6;;;5.0;;
63690;SDS011;49837;57.280;27.070;2022-07-22T04:58:15;14.3;;;4.8;;
63690;SDS011;49837;57.280;27.070;2022-07-22T04:59:16;13.0;;;5.0;;
63690;SDS011;49837;57.280;27.070;2022-07-22T05:00:16;21.2;;;4.8;;
63690;SDS011;49837;57.280;27.070;2022-07-22T05:01:17;39.6;;;6.7;;
63690;SDS011;49837;57.280;27.070;2022-07-22T05:02:17;36.6;;;7.0;;
63690;SDS011;49837;57.280;27.070;2022-07-22T05:03:17;23.0;;;5.4;;
63690;SDS011;49837;57.280;27.070;2022-07-22T05:04:18;29.6;;;6.5;;
63690;SDS011;49837;57.280;27.070;2022-07-22T05:05:18;31.8;;;7.0;;
63690;SDS011;49837;57.280;27.070;2022-07-22T05:06:18;33.7;;;6.2;;
63690;SDS011;49837;57.280;27.070;2022-07-22T05:07:19;26.0;;;6.2;;
63690;SDS011;49837;57.280;27.070;2022-07-22T05:08:20;31.0;;;6.4;;
63690;SDS011;49837;57.280;27.070;2022-07-22T05:09:20;32.0;;;6.9;;
63690;SDS011;49837;57.280;27.070;2022-07-22T05:10:21;32.7;;;6.2;;
63690;SDS011;49837;57.280;27.070;2022-07-22T05:11:21;25.7;;;6.3;;
63690;SDS011;49837;57.280;27.070;2022-07-22T05:12:21;22.8;;;6.5;;
63690;SDS011;49837;57.280;27.070;2022-07-22T05:13:22;25.4;;;6.5;;
63690;SDS011;49837;57.280;27.070;2022-07-22T05:14:22;27.8;;;6.3;;
63690;SDS011;49837;57.280;27.070;2022-07-22T05:15:23;25.6;;;6.4;;
63690;SDS011;49837;57.280;27.070;2022-07-22T05:16:23;23.5;;;5.9;;
63690;SDS011;49837;57.280;27.070;2022-07-22T05:17:23;28.7;;;6.3;;
63690;SDS011;49837;57.280;27.070;2022-07-22T05:18:24;21.0;;;6.0;;
63690;SDS011;49837;57.280;27.070;2022-07-22T05:19:24;23.9;;;6.3;;
63690;SDS011;49837;57.280;27.070;2022-07-22T05:20:25;27.7;;;6.6;;
63690;SDS011;49837;57.280;27.070;2022-07-22T05:21:25;24.5;;;6.5;;
63690;SDS011;49837;57.280;27.070;2022-07-22T05:22:25;29.3;;;6.9;;
63690;SDS011;49837;57.280;27.070;2022-07-22T05:23:26;22.5;;;7.3;;
63690;SDS011;49837;57.280;27.070;2022-07-22T05:24:26;24.6;;;8.0;;
63690;SDS011;49837;57.280;27.070;2022-07-22T05:25:26;31.1;;;7.4;;
63690;SDS011;49837;57.280;27.070;2022-07-22T05:26:27;26.3;;;6.2;;
63690;SDS011;49837;57.280;27.070;2022-07-22T05:27:27;29.7;;;6.8;;
63690;SDS011;49837;57.280;27.070;2022-07-22T05:28:28;20.8;;;6.4;;
63690;SDS011;49837;57.280;27.070;2022-07-22T05:29:28;20.1;;;6.5;;
63690;SDS011;49837;57.280;27.070;2022-07-22T05:30:28;21.7;;;7.3;;
63690;SDS011;49837;57.280;27.070;2022-07-22T05:31:29;18.4;;;6.7;;
63690;SDS011;49837;57.280;27.070;2022-07-22T05:32:29;20.8;;;7.0;;
63690;SDS011;49837;57.280;27.070;2022-07-22T05:33:30;19.9;;;6.9;;
63690;SDS011;49837;57.280;27.070;2022-07-22T05:34:30;17.5;;;7.3;;
63690;SDS011;49837;57.280;27.070;2022-07-22T05:35:30;15.6;;;7.4;;
63690;SDS011;49837;57.280;27.070;2022-07-22T05:36:31;15.2;;;7.3;;
63690;SDS011;49837;57.280;27.070;2022-07-22T05:37:31;16.9;;;7.6;;
63690;SDS011;49837;57.280;27.070;2022-07-22T05:38:32;16.5;;;8.4;;
63690;SDS011;49837;57.280;27.070;2022-07-22T05:39:32;16.6;;;8.2;;
63690;SDS011;49837;57.280;27.070;2022-07-22T05:40:32;16.3;;;8.2;;
63690;SDS011;49837;57.280;27.070;2022-07-22T05:41:33;14.1;;;8.1;;
63690;SDS011;49837;57.280;27.070;2022-07-22T05:42:33;15.2;;;8.3;;
63690;SDS011;49837;57.280;27.070;2022-07-22T05:43:34;16.1;;;8.3;;
63690;SDS011;49837;57.280;27.070;2022-07-22T05:44:34;13.7;;;7.8;;
63690;SDS011;49837;57.280;27.070;2022-07-22T05:45:34;12.4;;;7.8;;
63690;SDS011;49837;57.280;27.070;2022-07-22T05:46:35;14.6;;;8.0;;
63690;SDS011;49837;57.280;27.070;2022-07-22T05:47:35;24.7;;;8.3;;
63690;SDS011;49837;57.280;27.070;2022-07-22T05:48:36;22.7;;;8.3;;
63690;SDS011;49837;57.280;27.070;2022-07-22T05:49:36;16.3;;;8.0;;
63690;SDS011;49837;57.280;27.070;2022-07-22T05:50:40;19.5;;;8.0;;
63690;SDS011;49837;57.280;27.070;2022-07-22T05:51:41;16.4;;;8.2;;
63690;SDS011;49837;57.280;27.070;2022-07-22T05:52:41;18.1;;;8.0;;
63690;SDS011;49837;57.280;27.070;2022-07-22T05:53:42;15.9;;;7.9;;
63690;SDS011;49837;57.280;27.070;2022-07-22T05:54:42;12.2;;;8.2;;
63690;SDS011;49837;57.280;27.070;2022-07-22T05:55:43;14.3;;;8.1;;
63690;SDS011;49837;57.280;27.070;2022-07-22T05:56:43;15.8;;;8.2;;
63690;SDS011;49837;57.280;27.070;2022-07-22T05:57:43;13.4;;;8.1;;
63690;SDS011;49837;57.280;27.070;2022-07-22T05:58:44;13.2;;;7.7;;
63690;SDS011;49837;57.280;27.070;2022-07-22T05:59:44;14.2;;;7.3;;
63690;SDS011;49837;57.280;27.070;2022-07-22T06:00:45;15.0;;;8.1;;
63690;SDS011;49837;57.280;27.070;2022-07-22T06:01:45;14.6;;;9.4;;
63690;SDS011;49837;57.280;27.070;2022-07-22T06:02:45;15.6;;;8.5;;
63690;SDS011;49837;57.280;27.070;2022-07-22T06:03:46;15.9;;;8.3;;
63690;SDS011;49837;57.280;27.070;2022-07-22T06:04:46;15.4;;;8.7;;
63690;SDS011;49837;57.280;27.070;2022-07-22T06:05:47;15.1;;;8.7;;
63690;SDS011;49837;57.280;27.070;2022-07-22T06:06:47;15.5;;;8.7;;
63690;SDS011;49837;57.280;27.070;2022-07-22T06:07:47;15.3;;;8.6;;